Time;durP1;ratioP1;P1;durP2;ratioP2;P2;SDS_P1;SDS_P2;PMS_P1;PMS_P2;Temp;Humidity;BMP_temperature;BMP_pressure;BME280_temperature;BME280_humidity;BME280_pressure;Samples;Min_cycle;Max_cycle;Signal;HPM_P1;HPM_P2
2022/05/28 00:01:22;;;;;;;6.03;2.90;;;24.20;84.60;;;;;;5090909;28;20097;-84
2022/05/28 00:03:53;;;;;;;5.85;3.25;;;24.20;84.30;;;;;;5074344;28;20063;-83
2022/05/28 00:06:23;;;;;;;6.18;2.97;;;24.20;83.90;;;;;;5089039;28;20135;-84
2022/05/28 00:08:51;;;;;;;9.05;3.22;;;24.30;83.10;;;;;;5096098;28;20117;-83
2022/05/28 00:11:22;;;;;;;7.88;3.50;;;24.30;83.10;;;;;;5078349;28;20047;-84
2022/05/28 00:13:51;;;;;;;6.38;3.25;;;24.30;83.00;;;;;;5074854;28;20074;-84
2022/05/28 00:16:20;;;;;;;7.80;3.22;;;24.30;83.00;;;;;;5074822;28;20638;-83
2022/05/28 00:18:49;;;;;;;6.30;3.17;;;24.30;82.60;;;;;;5058416;28;20048;-83
2022/05/28 00:21:16;;;;;;;7.60;4.25;;;24.20;82.50;;;;;;5076148;28;20109;-83
2022/05/28 00:23:45;;;;;;;11.43;4.38;;;24.10;82.50;;;;;;5058217;28;20066;-83
2022/05/28 00:26:14;;;;;;;6.97;3.60;;;24.20;82.50;;;;;;5075267;28;20490;-83
2022/05/28 00:28:42;;;;;;;6.93;3.30;;;24.20;82.90;;;;;;5041800;28;20117;-82
2022/05/28 00:31:10;;;;;;;8.65;4.03;;;24.20;83.10;;;;;;5058267;28;20572;-83
2022/05/28 00:33:38;;;;;;;7.95;3.55;;;24.00;83.40;;;;;;5049123;28;20160;-83
2022/05/28 00:36:09;;;;;;;6.95;4.47;;;24.00;84.00;;;;;;5052673;28;20049;-83
2022/05/28 00:38:38;;;;;;;7.45;4.53;;;23.90;85.20;;;;;;5035228;28;20041;-83
2022/05/28 00:41:07;;;;;;;9.57;4.22;;;23.90;86.90;;;;;;5034850;28;20049;-82
2022/05/28 00:43:37;;;;;;;8.30;5.13;;;23.90;88.40;;;;;;5034972;28;20434;-82
2022/05/28 00:46:08;;;;;;;10.52;4.63;;;23.70;89.50;;;;;;5034862;28;20099;-82
2022/05/28 00:48:40;;;;;;;6.93;4.82;;;23.80;90.00;;;;;;5035532;28;20067;-83
2022/05/28 00:51:18;;;;;;;6.43;4.10;;;23.90;90.20;;;;;;5051502;28;20107;-83
2022/05/28 00:53:46;;;;;;;9.75;4.22;;;23.80;90.80;;;;;;5017752;28;20092;-83
2022/05/28 00:56:14;;;;;;;6.60;3.78;;;23.80;91.00;;;;;;5050611;28;20106;-83
2022/05/28 00:58:42;;;;;;;8.95;4.53;;;23.80;91.20;;;;;;5034985;28;20056;-83
2022/05/28 01:01:11;;;;;;;7.22;4.53;;;23.90;91.60;;;;;;5051148;28;20073;-83
2022/05/28 01:03:45;;;;;;;8.60;4.05;;;23.90;91.40;;;;;;5017927;28;20045;-82
2022/05/28 01:06:36;;;;;;;8.70;4.15;;;24.00;91.50;;;;;;5017872;28;20140;-83
2022/05/28 01:09:26;;;;;;;5.95;4.10;;;24.10;91.40;;;;;;5014975;28;20049;-83
2022/05/28 01:12:36;;;;;;;8.35;5.22;;;24.00;91.50;;;;;;5034563;28;20048;-82
2022/05/28 01:15:25;;;;;;;9.95;5.82;;;24.10;91.60;;;;;;4997040;28;20574;-83
2022/05/28 01:18:11;;;;;;;6.25;3.95;;;24.10;91.70;;;;;;5033928;28;20069;-83
2022/05/28 01:20:46;;;;;;;7.55;4.10;;;24.20;91.70;;;;;;5017860;28;20495;-83
2022/05/28 01:23:24;;;;;;;7.38;3.70;;;24.20;91.60;;;;;;5017896;28;20118;-83
2022/05/28 01:26:26;;;;;;;6.82;4.30;;;24.20;91.60;;;;;;5017617;28;20051;-83
2022/05/28 01:29:00;;;;;;;19.10;4.32;;;24.20;91.50;;;;;;5017647;28;20060;-83
2022/05/28 01:31:31;;;;;;;7.05;3.58;;;24.20;91.40;;;;;;5033948;28;20053;-82
2022/05/28 01:34:02;;;;;;;10.77;5.38;;;24.20;91.40;;;;;;5030219;28;20140;-83
2022/05/28 01:36:32;;;;;;;8.60;3.75;;;24.20;91.40;;;;;;5030605;28;20148;-83
2022/05/28 01:39:01;;;;;;;7.25;4.97;;;24.20;91.40;;;;;;5030621;28;20144;-83
2022/05/28 01:41:31;;;;;;;7.75;3.97;;;24.20;91.40;;;;;;5030365;28;20072;-82
2022/05/28 01:44:00;;;;;;;5.28;3.67;;;24.10;91.60;;;;;;5030416;28;20080;-81
2022/05/28 01:46:29;;;;;;;8.75;3.90;;;24.10;91.70;;;;;;5031572;28;20037;-81
2022/05/28 01:48:57;;;;;;;7.47;4.15;;;24.10;91.70;;;;;;5030050;28;20046;-81
2022/05/28 01:51:30;;;;;;;7.43;4.30;;;24.10;91.70;;;;;;4998135;28;20075;-80
2022/05/28 01:54:08;;;;;;;7.90;4.50;;;24.10;91.70;;;;;;5030296;28;20045;-80
2022/05/28 01:56:44;;;;;;;7.07;4.95;;;24.10;91.60;;;;;;5014088;28;20435;-80
2022/05/28 01:59:14;;;;;;;7.85;5.00;;;24.10;91.60;;;;;;5013695;28;20095;-80
2022/05/28 02:01:42;;;;;;;11.18;4.63;;;24.20;91.80;;;;;;5014070;28;20538;-80
2022/05/28 02:04:10;;;;;;;7.10;4.32;;;24.10;91.60;;;;;;5030374;28;20435;-80
2022/05/28 02:06:39;;;;;;;8.88;4.70;;;24.10;91.70;;;;;;5013464;28;20060;-80
2022/05/28 02:09:12;;;;;;;5.45;4.32;;;24.20;91.70;;;;;;5029888;28;20491;-81
2022/05/28 02:12:05;;;;;;;7.63;4.40;;;24.10;91.70;;;;;;5030163;28;20060;-80
2022/05/28 02:14:45;;;;;;;7.00;4.15;;;24.00;91.80;;;;;;5030141;28;20046;-80
2022/05/28 02:17:21;;;;;;;6.78;4.20;;;24.00;92.00;;;;;;5014175;28;20056;-80
2022/05/28 02:19:57;;;;;;;9.70;4.68;;;24.00;92.00;;;;;;4997808;28;20053;-80
2022/05/28 02:22:50;;;;;;;6.13;4.13;;;24.00;91.90;;;;;;5013169;28;20111;-80
2022/05/28 02:25:36;;;;;;;6.75;4.57;;;24.00;92.10;;;;;;5029599;28;20061;-80
2022/05/28 02:28:06;;;;;;;7.60;4.00;;;24.00;92.00;;;;;;5012982;28;20045;-80
2022/05/28 02:30:44;;;;;;;5.10;4.00;;;24.00;92.00;;;;;;5013002;28;20520;-80
2022/05/28 02:33:12;;;;;;;5.88;3.95;;;24.00;92.00;;;;;;5033628;28;20053;-80
2022/05/28 02:35:39;;;;;;;7.15;4.20;;;24.00;92.10;;;;;;5020368;28;20052;-80
2022/05/28 02:38:07;;;;;;;8.23;4.85;;;24.00;92.00;;;;;;5036128;28;20488;-80
2022/05/28 02:40:35;;;;;;;6.85;3.75;;;23.90;92.00;;;;;;5052508;28;20051;-80
2022/05/28 02:43:02;;;;;;;6.03;4.13;;;23.90;92.00;;;;;;5052938;28;20053;-80
2022/05/28 02:45:30;;;;;;;10.00;4.10;;;23.90;92.00;;;;;;5035334;28;20052;-80
2022/05/28 02:47:57;;;;;;;9.63;4.80;;;24.00;92.00;;;;;;5052859;28;20056;-80
2022/05/28 02:50:28;;;;;;;6.78;4.22;;;24.00;92.00;;;;;;5036328;28;20045;-80
2022/05/28 02:52:56;;;;;;;5.95;4.22;;;24.00;91.90;;;;;;5052868;28;20084;-80
2022/05/28 02:55:23;;;;;;;12.27;5.47;;;24.00;91.90;;;;;;5020256;28;20159;-80
2022/05/28 02:57:51;;;;;;;7.03;4.82;;;24.00;92.00;;;;;;5036001;28;20045;-80
2022/05/28 03:00:19;;;;;;;7.07;4.20;;;23.90;92.00;;;;;;5034860;28;20767;-80
2022/05/28 03:02:48;;;;;;;7.10;4.85;;;24.00;92.10;;;;;;5046902;28;20085;-80
2022/05/28 03:05:19;;;;;;;10.15;5.18;;;24.00;92.20;;;;;;5039454;28;20109;-80
2022/05/28 03:07:46;;;;;;;6.10;4.40;;;24.00;92.30;;;;;;5072302;28;20454;-81
2022/05/28 03:10:14;;;;;;;7.90;4.55;;;23.90;92.40;;;;;;5055425;28;20048;-80
2022/05/28 03:12:41;;;;;;;7.07;3.80;;;23.90;92.40;;;;;;5055357;28;20044;-81
2022/05/28 03:15:10;;;;;;;5.80;4.53;;;23.90;92.60;;;;;;5072485;28;20123;-81
2022/05/28 03:17:37;;;;;;;6.65;4.13;;;23.90;92.70;;;;;;5056353;28;20095;-80
2022/05/28 03:20:06;;;;;;;6.65;4.63;;;23.70;92.70;;;;;;5072246;28;20044;-80
2022/05/28 03:22:33;;;;;;;9.57;5.18;;;23.60;92.90;;;;;;5055141;28;20040;-79
2022/05/28 03:25:01;;;;;;;9.48;4.20;;;23.50;92.80;;;;;;5054927;28;20585;-80
2022/05/28 03:27:28;;;;;;;6.45;4.68;;;23.50;92.90;;;;;;5071972;28;20051;-80
2022/05/28 03:29:56;;;;;;;7.28;4.07;;;23.40;93.00;;;;;;5055610;28;20048;-80
2022/05/28 03:32:24;;;;;;;7.85;4.05;;;23.40;93.00;;;;;;5072397;28;20071;-80
2022/05/28 03:34:51;;;;;;;8.70;4.53;;;23.20;93.40;;;;;;5071636;28;20101;-80
2022/05/28 03:37:19;;;;;;;7.78;4.57;;;23.00;93.40;;;;;;5090095;28;20075;-80
2022/05/28 03:39:47;;;;;;;7.72;4.75;;;22.90;93.60;;;;;;5072702;28;20501;-80
2022/05/28 03:42:14;;;;;;;9.48;5.47;;;22.80;93.60;;;;;;5059198;28;20072;-80
2022/05/28 03:44:42;;;;;;;4.95;4.20;;;22.80;93.60;;;;;;5059451;28;20650;-80
2022/05/28 03:47:09;;;;;;;5.60;4.32;;;22.80;93.70;;;;;;5059536;28;20044;-80
2022/05/28 03:49:38;;;;;;;7.93;4.47;;;22.80;93.80;;;;;;5075592;28;20447;-80
2022/05/28 03:52:07;;;;;;;9.93;4.60;;;22.80;93.90;;;;;;5058941;28;20669;-80
2022/05/28 03:54:34;;;;;;;8.07;4.10;;;22.90;93.70;;;;;;5091796;28;20043;-80
2022/05/28 03:57:08;;;;;;;7.93;4.88;;;23.00;93.70;;;;;;5042176;28;20048;-80
2022/05/28 03:59:35;;;;;;;8.85;4.70;;;22.80;93.70;;;;;;5075825;28;20146;-80
2022/05/28 04:02:03;;;;;;;8.07;5.32;;;22.90;93.80;;;;;;5075342;28;20074;-78
2022/05/28 04:04:31;;;;;;;7.28;4.90;;;22.90;93.80;;;;;;5059095;28;20406;-81
2022/05/28 04:07:00;;;;;;;6.95;5.20;;;23.00;93.70;;;;;;5058402;28;20238;-82
2022/05/28 04:09:29;;;;;;;6.07;4.20;;;23.00;93.60;;;;;;5041715;28;20056;-83
2022/05/28 04:11:57;;;;;;;7.13;4.47;;;23.10;93.60;;;;;;5058426;28;20142;-82
2022/05/28 04:14:24;;;;;;;8.88;4.60;;;23.10;93.40;;;;;;5042285;28;20044;-82
2022/05/28 04:16:52;;;;;;;12.25;5.72;;;23.10;93.30;;;;;;5075103;28;20563;-83
2022/05/28 04:19:20;;;;;;;9.90;4.55;;;23.10;93.30;;;;;;5058821;28;20138;-83
2022/05/28 04:21:47;;;;;;;12.20;5.07;;;23.10;93.20;;;;;;5041616;28;20082;-82
2022/05/28 04:24:15;;;;;;;7.10;4.45;;;23.10;93.20;;;;;;5041700;28;20044;-83
2022/05/28 04:26:43;;;;;;;8.75;4.88;;;23.10;93.20;;;;;;5074357;28;20524;-83
2022/05/28 04:29:10;;;;;;;7.47;4.93;;;23.10;93.20;;;;;;5042048;28;20044;-82
2022/05/28 04:31:38;;;;;;;6.07;3.97;;;22.90;93.20;;;;;;5058523;28;20044;-82
2022/05/28 04:34:05;;;;;;;7.18;4.03;;;22.70;93.50;;;;;;5074857;28;20060;-82
2022/05/28 04:36:33;;;;;;;9.82;4.35;;;22.60;93.60;;;;;;5058254;28;20079;-83
2022/05/28 04:39:01;;;;;;;11.40;4.55;;;22.50;93.80;;;;;;5057274;28;20571;-83
2022/05/28 04:41:28;;;;;;;9.30;5.45;;;22.50;93.80;;;;;;5058135;28;20070;-83
2022/05/28 04:43:56;;;;;;;7.82;4.60;;;22.60;93.70;;;;;;5052554;28;20139;-82
2022/05/28 04:46:24;;;;;;;7.32;4.63;;;22.70;93.40;;;;;;5038170;28;20075;-83
2022/05/28 04:48:51;;;;;;;8.82;5.68;;;22.90;93.10;;;;;;5037861;28;20541;-83
2022/05/28 04:51:19;;;;;;;7.03;4.07;;;22.90;92.90;;;;;;5053959;28;20049;-83
2022/05/28 04:53:46;;;;;;;10.55;4.85;;;22.90;92.90;;;;;;5021945;28;20056;-82
2022/05/28 04:56:14;;;;;;;13.70;7.45;;;22.90;92.90;;;;;;5037530;28;20157;-82
2022/05/28 04:58:45;;;;;;;16.70;7.47;;;22.90;92.90;;;;;;5054720;28;20052;-82
2022/05/28 05:01:15;;;;;;;15.27;7.05;;;23.00;92.80;;;;;;5072485;28;20127;-82
2022/05/28 05:03:43;;;;;;;10.55;6.40;;;23.20;92.60;;;;;;5072336;28;20055;-83
2022/05/28 05:06:11;;;;;;;10.48;5.63;;;23.20;92.50;;;;;;5021283;28;20098;-82
2022/05/28 05:08:42;;;;;;;12.43;5.00;;;23.40;92.40;;;;;;5054289;28;20048;-83
2022/05/28 05:11:10;;;;;;;11.43;6.15;;;23.40;92.20;;;;;;5054481;28;20068;-82
2022/05/28 05:13:40;;;;;;;10.57;5.47;;;23.50;92.00;;;;;;5037906;28;20052;-82
2022/05/28 05:16:10;;;;;;;9.82;4.70;;;23.50;91.90;;;;;;5053932;28;20121;-82
2022/05/28 05:18:38;;;;;;;9.35;5.30;;;23.50;91.90;;;;;;5037087;28;20049;-82
2022/05/28 05:21:06;;;;;;;8.48;4.88;;;23.50;92.00;;;;;;5054434;28;20069;-82
2022/05/28 05:23:34;;;;;;;10.32;6.57;;;23.60;92.00;;;;;;5037691;28;20059;-82
2022/05/28 05:26:15;;;;;;;11.25;6.32;;;23.40;91.90;;;;;;5037026;28;20143;-83
2022/05/28 05:28:44;;;;;;;16.48;7.00;;;23.50;91.80;;;;;;5053973;28;20055;-82
2022/05/28 05:31:13;;;;;;;11.70;6.65;;;23.60;91.50;;;;;;5036726;28;20090;-81
2022/05/28 05:33:41;;;;;;;11.63;6.18;;;23.60;91.30;;;;;;5053625;28;20109;-82
2022/05/28 05:36:09;;;;;;;17.70;7.10;;;23.70;91.00;;;;;;5053778;28;20047;-80
2022/05/28 05:38:37;;;;;;;9.45;4.72;;;23.90;90.70;;;;;;5070190;28;20057;-81
2022/05/28 05:41:06;;;;;;;13.75;5.53;;;24.10;90.30;;;;;;5071065;28;20093;-81
2022/05/28 05:43:33;;;;;;;8.48;5.35;;;24.30;90.30;;;;;;5057271;28;20048;-82
2022/05/28 05:46:02;;;;;;;8.75;4.60;;;24.50;89.20;;;;;;5056385;28;20596;-82
2022/05/28 05:48:30;;;;;;;8.85;4.25;;;24.60;89.10;;;;;;5057083;28;20048;-81
2022/05/28 05:51:11;;;;;;;6.40;4.38;;;24.70;89.00;;;;;;5073589;28;20059;-81
2022/05/28 05:53:40;;;;;;;7.35;4.10;;;24.50;88.50;;;;;;5073874;28;20136;-81
2022/05/28 05:56:11;;;;;;;7.70;4.35;;;24.40;89.20;;;;;;5056350;28;20036;-81
2022/05/28 05:58:39;;;;;;;12.65;4.25;;;24.70;88.70;;;;;;5056187;28;20078;-81
2022/05/28 06:01:08;;;;;;;8.85;3.75;;;24.60;87.80;;;;;;5073445;28;20098;-81
2022/05/28 06:03:36;;;;;;;6.93;3.70;;;24.70;87.20;;;;;;5056172;28;20559;-81
2022/05/28 06:06:05;;;;;;;5.40;3.42;;;24.90;86.70;;;;;;5056602;28;20047;-81
2022/05/28 06:08:33;;;;;;;5.93;3.38;;;25.10;85.20;;;;;;5073120;28;20063;-82
2022/05/28 06:11:01;;;;;;;9.32;3.55;;;25.10;84.80;;;;;;5056649;28;20386;-81
2022/05/28 06:13:28;;;;;;;7.40;4.30;;;25.10;84.70;;;;;;5072796;28;20063;-82
2022/05/28 06:15:56;;;;;;;6.90;3.65;;;25.00;84.60;;;;;;5039930;28;20052;-82
2022/05/28 06:18:24;;;;;;;6.63;3.55;;;25.20;84.30;;;;;;5072785;28;20101;-81
2022/05/28 06:20:53;;;;;;;6.72;3.50;;;25.30;84.10;;;;;;5091117;28;20040;-81
2022/05/28 06:23:21;;;;;;;7.65;3.67;;;25.60;83.50;;;;;;5090949;28;20444;-81
2022/05/28 06:25:49;;;;;;;7.43;3.33;;;25.40;82.00;;;;;;5055934;28;20050;-81
2022/05/28 06:28:17;;;;;;;10.65;3.60;;;25.10;82.80;;;;;;5055813;28;20044;-82
2022/05/28 06:30:45;;;;;;;10.18;3.38;;;24.90;83.40;;;;;;5072139;28;20095;-81
2022/05/28 06:33:13;;;;;;;6.57;4.32;;;25.00;83.90;;;;;;5055647;28;20540;-82
2022/05/28 06:35:40;;;;;;;5.97;3.08;;;25.20;83.00;;;;;;5057390;28;20044;-80
2022/05/28 06:38:08;;;;;;;5.90;3.33;;;25.20;83.20;;;;;;5072576;28;20044;-81
2022/05/28 06:40:36;;;;;;;8.15;3.53;;;25.40;83.60;;;;;;5056130;28;20039;-81
2022/05/28 06:43:05;;;;;;;11.00;4.55;;;25.50;83.80;;;;;;5090535;28;20039;-81
2022/05/28 06:45:35;;;;;;;7.63;3.60;;;25.70;83.80;;;;;;5072690;28;20048;-81
2022/05/28 06:48:03;;;;;;;4.55;3.22;;;25.80;84.00;;;;;;5072196;28;20058;-81
2022/05/28 06:53:16;;;;;;;9.23;4.57;;;26.10;84.60;;;;;;5090904;28;20036;-82
2022/05/28 06:55:48;;;;;;;7.65;3.50;;;26.20;84.70;;;;;;5040459;28;20044;-84
2022/05/28 06:58:16;;;;;;;7.28;3.03;;;26.30;84.60;;;;;;5056285;28;20036;-81
2022/05/28 07:00:43;;;;;;;7.00;3.08;;;26.30;84.30;;;;;;5055869;28;20048;-82
2022/05/28 07:03:14;;;;;;;6.57;3.15;;;26.40;84.30;;;;;;5072281;28;20097;-82
2022/05/28 07:05:42;;;;;;;5.97;3.22;;;26.50;84.20;;;;;;5056226;28;20494;-82
2022/05/28 07:08:10;;;;;;;6.32;3.13;;;26.50;84.10;;;;;;5054711;28;20075;-82
2022/05/28 07:10:48;;;;;;;8.75;3.30;;;26.50;83.80;;;;;;5090008;28;20059;-82
2022/05/28 07:13:17;;;;;;;9.93;3.20;;;26.60;83.80;;;;;;5056229;28;20573;-82
2022/05/28 07:15:45;;;;;;;5.68;2.63;;;26.70;83.20;;;;;;5058731;28;20075;-83
2022/05/28 07:18:14;;;;;;;5.10;2.08;;;26.70;81.40;;;;;;5043703;28;20052;-83
2022/05/28 07:20:43;;;;;;;5.65;2.53;;;26.60;81.00;;;;;;5060194;28;20048;-83
2022/05/28 07:23:23;;;;;;;5.82;3.58;;;26.70;82.30;;;;;;5061308;28;20531;-84
2022/05/28 07:25:59;;;;;;;5.68;3.00;;;26.80;83.00;;;;;;5059882;28;20410;-82
2022/05/28 07:28:33;;;;;;;9.27;2.17;;;26.80;82.90;;;;;;5077269;28;20070;-82
2022/05/28 07:31:06;;;;;;;5.68;2.40;;;26.90;83.10;;;;;;5077289;28;20044;-82
2022/05/28 07:33:37;;;;;;;7.00;2.83;;;27.00;84.40;;;;;;5074643;28;20051;-83
2022/05/28 07:36:06;;;;;;;5.60;2.58;;;27.20;84.20;;;;;;5076670;28;20048;-82
2022/05/28 07:38:36;;;;;;;9.27;3.53;;;27.20;82.40;;;;;;5059575;28;20048;-83
2022/05/28 07:41:12;;;;;;;8.45;3.13;;;27.30;82.20;;;;;;5043908;28;20140;-83
2022/05/28 07:43:41;;;;;;;9.20;3.47;;;27.00;82.30;;;;;;5079438;28;20078;-83
2022/05/28 07:46:21;;;;;;;6.05;2.35;;;27.30;83.20;;;;;;5063822;28;20060;-82
2022/05/28 07:48:50;;;;;;;6.57;2.65;;;27.50;83.00;;;;;;5063334;28;20086;-83
2022/05/28 07:51:17;;;;;;;6.57;2.67;;;27.70;84.10;;;;;;5060966;28;20047;-83
2022/05/28 07:53:45;;;;;;;7.63;2.67;;;27.80;83.60;;;;;;5076456;28;20502;-83
2022/05/28 07:56:13;;;;;;;6.18;2.40;;;27.80;83.30;;;;;;5076018;28;20050;-82
2022/05/28 07:58:41;;;;;;;7.03;3.38;;;27.70;82.30;;;;;;5041671;28;20551;-82
2022/05/28 08:01:21;;;;;;;4.82;2.75;;;27.80;82.20;;;;;;5075582;28;20044;-81
2022/05/28 08:03:49;;;;;;;5.45;2.90;;;27.90;80.40;;;;;;5042121;28;20044;-82
2022/05/28 08:06:19;;;;;;;5.40;2.75;;;28.10;82.00;;;;;;5075220;28;20067;-81
2022/05/28 08:08:48;;;;;;;6.25;2.90;;;28.30;81.20;;;;;;5074925;28;20044;-82
2022/05/28 08:11:15;;;;;;;7.22;2.30;;;28.30;81.20;;;;;;5042024;28;20056;-82
2022/05/28 08:13:43;;;;;;;11.52;2.92;;;28.40;78.70;;;;;;5058299;28;20142;-83
2022/05/28 08:16:11;;;;;;;6.25;3.25;;;28.20;78.80;;;;;;5058143;28;20048;-83
2022/05/28 08:18:39;;;;;;;4.93;2.90;;;28.10;79.10;;;;;;5074905;28;20047;-82
2022/05/28 08:23:54;;;;;;;8.90;3.35;;;28.00;77.70;;;;;;5057752;28;20105;-84
2022/05/28 08:26:22;;;;;;;6.30;3.15;;;28.20;78.80;;;;;;5074118;28;20048;-83
2022/05/28 08:28:51;;;;;;;7.55;2.35;;;28.40;79.80;;;;;;5074823;28;20093;-82
2022/05/28 08:31:20;;;;;;;9.13;2.78;;;28.20;78.70;;;;;;5074472;28;20135;-83
2022/05/28 08:33:48;;;;;;;7.38;3.00;;;28.20;79.60;;;;;;5058549;28;20060;-82
2022/05/28 08:36:17;;;;;;;6.88;2.95;;;28.30;78.50;;;;;;5074766;28;20169;-83
2022/05/28 08:38:46;;;;;;;6.60;3.22;;;28.20;76.00;;;;;;5058122;28;20130;-84
2022/05/28 08:41:24;;;;;;;5.82;2.95;;;28.00;76.40;;;;;;5075189;28;20769;-82
2022/05/28 08:44:14;;;;;;;15.57;3.17;;;27.90;76.20;;;;;;5074709;28;20435;-82
2022/05/28 08:46:44;;;;;;;7.78;3.05;;;27.90;76.50;;;;;;5074869;28;20448;-84
2022/05/28 08:49:14;;;;;;;8.10;2.88;;;27.80;76.90;;;;;;5058140;28;20101;-83
2022/05/28 08:51:53;;;;;;;11.98;3.08;;;27.90;77.70;;;;;;5058316;28;20516;-82
2022/05/28 08:54:33;;;;;;;6.50;2.97;;;27.90;77.80;;;;;;5041471;28;20498;-83
2022/05/28 08:57:06;;;;;;;7.53;3.20;;;28.10;77.00;;;;;;5074803;28;20482;-83
2022/05/28 08:59:50;;;;;;;6.47;3.22;;;28.00;75.40;;;;;;5092797;28;20532;-83
2022/05/28 09:02:40;;;;;;;7.68;3.70;;;27.90;74.00;;;;;;5057297;28;20056;-82
2022/05/28 09:05:25;;;;;;;4.75;2.67;;;28.10;76.70;;;;;;5041199;28;20485;-81
2022/05/28 09:07:57;;;;;;;6.00;3.90;;;27.90;76.70;;;;;;5039802;28;20486;-82
2022/05/28 09:10:28;;;;;;;5.90;2.90;;;27.50;78.00;;;;;;5041408;28;20054;-82
2022/05/28 09:13:07;;;;;;;7.32;3.40;;;27.40;78.20;;;;;;5057562;28;20048;-82
2022/05/28 09:15:37;;;;;;;6.85;2.72;;;27.30;79.30;;;;;;5074630;28;20048;-83
2022/05/28 09:18:06;;;;;;;6.00;2.83;;;27.20;80.10;;;;;;5073857;28;20107;-82
2022/05/28 09:20:40;;;;;;;5.70;2.58;;;27.30;80.10;;;;;;5074438;28;20136;-82
2022/05/28 09:23:07;;;;;;;5.57;3.03;;;27.60;79.70;;;;;;5058001;28;20473;-82
2022/05/28 09:25:41;;;;;;;8.15;3.10;;;28.00;79.80;;;;;;5073772;28;20051;-81
2022/05/28 09:28:24;;;;;;;8.70;2.92;;;28.20;78.40;;;;;;5040556;28;20051;-82
2022/05/28 09:31:27;;;;;;;6.18;3.20;;;28.50;77.60;;;;;;5073895;28;20510;-82
2022/05/28 09:34:27;;;;;;;7.70;3.65;;;29.00;77.80;;;;;;5057173;28;20084;-82
2022/05/28 09:37:18;;;;;;;5.20;2.60;;;29.30;77.10;;;;;;5057455;28;20085;-81
2022/05/28 09:39:46;;;;;;;5.85;2.85;;;29.40;72.90;;;;;;5073442;28;20402;-81
2022/05/28 09:42:17;;;;;;;5.82;2.67;;;29.40;70.50;;;;;;5073382;28;20052;-81
2022/05/28 09:44:56;;;;;;;7.20;3.10;;;29.40;67.90;;;;;;5057335;28;20105;-82
2022/05/28 09:47:23;;;;;;;7.45;3.78;;;29.40;67.00;;;;;;5073713;28;20048;-81
2022/05/28 09:49:56;;;;;;;7.60;2.63;;;29.40;67.10;;;;;;5056929;28;20060;-82
2022/05/28 09:52:24;;;;;;;5.32;2.60;;;29.60;66.40;;;;;;5057082;28;20052;-82
2022/05/28 09:54:52;;;;;;;6.82;2.60;;;29.50;65.30;;;;;;5056814;28;20048;-84
2022/05/28 09:57:20;;;;;;;8.05;2.80;;;29.20;65.10;;;;;;5073531;28;20055;-83
2022/05/28 10:00:11;;;;;;;6.57;3.10;;;29.00;64.80;;;;;;5057236;28;20036;-83
2022/05/28 10:05:57;;;;;;;8.30;2.78;;;29.30;64.50;;;;;;5054144;28;20552;-81
2022/05/28 10:08:33;;;;;;;5.68;2.13;;;29.50;63.40;;;;;;5037762;28;20044;-82
2022/05/28 10:11:03;;;;;;;4.68;2.28;;;29.60;63.20;;;;;;5037250;28;20494;-82
2022/05/28 10:13:49;;;;;;;4.55;2.80;;;29.90;62.20;;;;;;5036411;28;20106;-82
2022/05/28 10:16:26;;;;;;;7.43;2.28;;;29.80;61.60;;;;;;5052745;28;20045;-83
2022/05/28 10:19:34;;;;;;;3.45;1.85;;;30.00;62.00;;;;;;5022055;28;20044;-83
2022/05/28 10:22:06;;;;;;;5.43;2.10;;;30.10;63.00;;;;;;5036893;28;20055;-82
2022/05/28 10:24:46;;;;;;;6.63;2.25;;;30.20;62.80;;;;;;5036254;28;20048;-83
2022/05/28 10:27:34;;;;;;;4.13;2.03;;;30.40;61.10;;;;;;5036192;28;20123;-82
2022/05/28 10:30:20;;;;;;;5.63;2.25;;;30.10;59.80;;;;;;5019879;28;20056;-82
2022/05/28 10:32:49;;;;;;;;;;;30.10;61.20;;;;;;5052981;28;20044;-82
2022/05/28 10:35:23;;;;;;;4.93;1.92;;;30.10;61.90;;;;;;5029366;28;19927;-83
2022/05/28 10:37:51;;;;;;;5.68;2.70;;;30.00;62.20;;;;;;5012881;28;20060;-82
2022/05/28 10:40:23;;;;;;;7.43;2.78;;;30.00;62.60;;;;;;5028290;28;20607;-84
2022/05/28 10:43:12;;;;;;;4.78;1.98;;;29.80;62.60;;;;;;5029773;28;20069;-84
2022/05/28 10:45:47;;;;;;;7.03;2.50;;;29.70;61.60;;;;;;5013190;28;20045;-83
2022/05/28 10:48:31;;;;;;;8.60;2.88;;;29.80;61.50;;;;;;4996691;28;20053;-84
2022/05/28 10:51:20;;;;;;;4.90;3.13;;;29.90;61.20;;;;;;5045353;28;20053;-83
2022/05/28 10:54:26;;;;;;;7.28;3.40;;;30.10;59.90;;;;;;5021423;28;20053;-84
2022/05/28 10:57:12;;;;;;;8.07;3.45;;;30.00;59.30;;;;;;5028637;28;20099;-84
2022/05/28 11:00:02;;;;;;;9.32;2.60;;;30.20;59.20;;;;;;5046420;28;20092;-85
2022/05/28 11:02:49;;;;;;;9.65;2.70;;;30.20;57.80;;;;;;5030221;28;20037;-83
2022/05/28 11:05:33;;;;;;;6.80;2.92;;;29.90;56.40;;;;;;5030131;28;20041;-84
2022/05/28 11:08:05;;;;;;;5.20;2.72;;;29.60;54.60;;;;;;5029200;28;20472;-84
2022/05/28 11:10:42;;;;;;;5.18;2.10;;;29.60;54.00;;;;;;5045256;28;20084;-83
2022/05/28 11:13:22;;;;;;;9.02;2.38;;;29.60;53.10;;;;;;5029052;28;20045;-84
2022/05/28 11:16:24;;;;;;;5.45;2.38;;;29.60;54.80;;;;;;5028643;28;20050;-84
2022/05/28 11:19:04;;;;;;;6.70;2.08;;;29.50;55.10;;;;;;5011586;28;20046;-83
2022/05/28 11:22:04;;;;;;;8.93;2.40;;;29.40;55.90;;;;;;5012293;28;20053;-83
2022/05/28 11:24:47;;;;;;;6.13;2.80;;;29.30;56.40;;;;;;4991046;28;20057;-83
2022/05/28 11:27:23;;;;;;;9.73;2.38;;;29.10;56.70;;;;;;5029711;28;20045;-82
2022/05/28 11:29:59;;;;;;;5.68;2.67;;;29.10;56.80;;;;;;5028847;28;20073;-83
2022/05/28 11:32:48;;;;;;;3.75;2.47;;;29.40;56.40;;;;;;5012094;28;20104;-82
2022/05/28 11:35:22;;;;;;;9.35;2.88;;;29.50;55.60;;;;;;5067616;28;20460;-85
2022/05/28 11:38:01;;;;;;;6.82;2.22;;;29.50;56.20;;;;;;5051864;28;20059;-84
2022/05/28 11:40:34;;;;;;;6.15;2.05;;;29.60;55.60;;;;;;5070389;28;20078;-83
2022/05/28 11:43:11;;;;;;;7.20;2.20;;;29.70;54.60;;;;;;5052063;28;20053;-82
2022/05/28 11:45:53;;;;;;;8.50;2.05;;;29.70;54.70;;;;;;5052603;28;20570;-84
2022/05/28 11:52:10;;;;;;;5.03;1.85;;;29.80;53.80;;;;;;5054571;28;20047;-83
2022/05/28 11:54:45;;;;;;;7.03;3.40;;;29.60;53.20;;;;;;5052243;28;20655;-84
2022/05/28 11:57:42;;;;;;;8.80;2.28;;;29.70;53.90;;;;;;5035945;28;20415;-84
2022/05/28 12:00:13;;;;;;;6.30;2.90;;;29.70;52.50;;;;;;5018394;28;20051;-84
2022/05/28 12:02:48;;;;;;;8.95;2.78;;;29.80;52.50;;;;;;5022929;28;20056;-83
2022/05/28 12:05:21;;;;;;;5.60;2.60;;;29.70;52.50;;;;;;5074256;28;20040;-83
2022/05/28 12:07:59;;;;;;;7.45;3.20;;;29.60;53.40;;;;;;5040226;28;20119;-83
2022/05/28 12:10:36;;;;;;;4.70;2.13;;;29.50;52.70;;;;;;5073835;28;20483;-84
2022/05/28 12:13:04;;;;;;;8.52;2.50;;;29.60;52.00;;;;;;5040967;28;20075;-83
2022/05/28 12:15:37;;;;;;;6.38;2.60;;;29.50;52.30;;;;;;5055785;28;20049;-82
2022/05/28 12:18:10;;;;;;;7.30;2.72;;;29.50;52.10;;;;;;5072521;28;20490;-82
2022/05/28 12:20:54;;;;;;;10.02;2.88;;;29.50;52.60;;;;;;5056997;28;20056;-83
2022/05/28 12:23:42;;;;;;;9.50;2.22;;;29.40;52.80;;;;;;5039400;28;20472;-81
2022/05/28 12:26:48;;;;;;;4.85;2.90;;;29.40;52.50;;;;;;5038626;28;20052;-83
2022/05/28 12:29:38;;;;;;;5.45;1.67;;;29.50;53.00;;;;;;5055324;28;20127;-82
2022/05/28 12:32:26;;;;;;;8.20;2.15;;;29.40;53.40;;;;;;5071976;28;20044;-82
2022/05/28 12:35:03;;;;;;;6.63;2.25;;;29.40;53.70;;;;;;5054489;28;20052;-84
2022/05/28 12:37:37;;;;;;;4.35;1.70;;;29.40;54.40;;;;;;5055380;28;20056;-83
2022/05/28 12:40:33;;;;;;;7.20;2.23;;;29.30;54.30;;;;;;5072200;28;20052;-83
2022/05/28 12:43:24;;;;;;;7.00;1.95;;;29.30;54.30;;;;;;5039161;28;20537;-83
2022/05/28 12:45:54;;;;;;;4.13;2.20;;;29.20;54.20;;;;;;5054384;28;20117;-83
2022/05/28 12:48:33;;;;;;;7.13;2.13;;;29.10;54.20;;;;;;5054490;28;20044;-82
2022/05/28 12:51:04;;;;;;;5.35;1.60;;;29.00;53.60;;;;;;5057813;28;20047;-83
2022/05/28 12:53:58;;;;;;;4.10;1.67;;;29.00;53.10;;;;;;5058791;28;20056;-84
2022/05/28 12:56:35;;;;;;;4.03;1.83;;;29.00;52.90;;;;;;5042194;28;20071;-82
2022/05/28 12:59:22;;;;;;;4.40;1.70;;;29.00;52.40;;;;;;5058583;28;20055;-83
2022/05/28 13:01:58;;;;;;;6.80;1.58;;;29.00;53.10;;;;;;5075443;28;20056;-85
2022/05/28 13:04:39;;;;;;;4.65;2.67;;;29.00;53.30;;;;;;5076085;28;20047;-82
2022/05/28 13:07:24;;;;;;;6.60;1.88;;;28.90;53.50;;;;;;5057644;28;20068;-82
2022/05/28 13:10:02;;;;;;;7.63;2.25;;;28.90;53.50;;;;;;5073962;28;20037;-81
2022/05/28 13:12:56;;;;;;;6.90;1.92;;;28.80;53.40;;;;;;5040065;28;20052;-82
2022/05/28 13:15:58;;;;;;;6.97;2.15;;;28.90;52.80;;;;;;5057773;28;20055;-82
2022/05/28 13:18:44;;;;;;;4.53;1.60;;;28.90;52.70;;;;;;5057313;28;20043;-82
2022/05/28 13:21:37;;;;;;;6.55;1.95;;;28.90;53.20;;;;;;5058091;28;20562;-82
2022/05/28 13:24:35;;;;;;;3.65;2.20;;;28.80;52.90;;;;;;5074142;28;20075;-82
2022/05/28 13:27:29;;;;;;;4.32;1.90;;;29.00;53.70;;;;;;5074505;28;20472;-82
2022/05/28 13:30:13;;;;;;;6.88;1.80;;;29.00;52.00;;;;;;5047661;28;20079;-83
2022/05/28 13:32:43;;;;;;;6.60;2.00;;;29.00;52.40;;;;;;5055184;28;20055;-81